createdAt,value
2018-03-27T00:02:21.823Z,36.37
2018-03-27T00:04:56.704Z,37.83
2018-03-27T00:07:31.416Z,36.43
2018-03-27T00:10:05.244Z,37.27
2018-03-27T00:12:39.398Z,36.23
2018-03-27T00:15:14.095Z,38.43
2018-03-27T00:17:48.673Z,38.33
2018-03-27T00:20:23.129Z,39.63
2018-03-27T00:22:56.860Z,39.73
2018-03-27T00:25:31.567Z,40.20
2018-03-27T00:28:17.975Z,38.83
2018-03-27T00:31:04.770Z,41.40
2018-03-27T00:33:50.460Z,41.57
2018-03-27T00:36:36.764Z,43.93
2018-03-27T00:39:23.071Z,42.83
2018-03-27T00:55:23.852Z,40.37
2018-03-27T00:57:58.287Z,43.73
2018-03-27T01:00:32.028Z,47.10
2018-03-27T01:03:05.991Z,46.90
2018-03-27T01:05:40.352Z,47.67
2018-03-27T01:08:14.871Z,56.77
2018-03-27T01:10:49.709Z,47.13
2018-03-27T01:13:23.779Z,44.40
2018-03-27T01:15:58.304Z,45.20
2018-03-27T01:18:31.827Z,45.63
2018-03-27T01:21:06.145Z,45.57
2018-03-27T01:23:40.739Z,45.47
2018-03-27T01:26:15.081Z,45.30
2018-03-27T01:28:49.677Z,43.20
2018-03-27T01:31:24.259Z,43.13
2018-03-27T01:33:58.810Z,47.33
2018-03-27T01:36:32.537Z,43.33
2018-03-27T01:39:06.375Z,43.27
2018-03-27T01:41:40.978Z,41.30
2018-03-27T01:44:15.507Z,43.03
2018-03-27T01:46:49.486Z,42.97
2018-03-27T01:49:23.081Z,42.80
2018-03-27T01:51:56.728Z,41.47
2018-03-27T01:54:31.767Z,40.03
2018-03-27T01:57:05.552Z,41.07
2018-03-27T01:59:40.429Z,41.93
2018-03-27T02:02:14.258Z,43.73
2018-03-27T02:04:48.824Z,42.33
2018-03-27T02:07:23.096Z,43.17
2018-03-27T02:09:56.819Z,43.10
2018-03-27T02:12:36.449Z,43.90
2018-03-27T02:15:16.142Z,43.03
2018-03-27T02:17:56.470Z,41.30
2018-03-27T02:20:35.895Z,37.90
2018-03-27T02:23:11.626Z,36.80
2018-03-27T02:25:46.059Z,35.37
2018-03-27T02:28:20.800Z,39.23
2018-03-27T02:30:54.687Z,38.20
2018-03-27T02:33:28.680Z,39.03
2018-03-27T02:36:03.644Z,40.57
2018-03-27T02:38:37.449Z,37.30
2018-03-27T02:41:11.976Z,37.40
2018-03-27T02:43:46.693Z,39.00
2018-03-27T02:46:20.606Z,38.43
2018-03-27T02:48:54.712Z,41.60
2018-03-27T02:51:29.136Z,43.10
2018-03-27T02:54:03.141Z,45.67
2018-03-27T02:56:38.491Z,45.43
2018-03-27T02:59:12.700Z,41.90
2018-03-27T03:01:47.283Z,42.20
2018-03-27T03:04:21.836Z,42.87
2018-03-27T03:06:55.663Z,41.00
2018-03-27T03:09:30.377Z,38.07
2018-03-27T03:12:04.122Z,40.60
2018-03-27T03:14:38.890Z,39.27
2018-03-27T03:17:12.804Z,38.17
2018-03-27T03:19:47.533Z,38.10
2018-03-27T03:22:21.639Z,39.87
2018-03-27T03:24:56.068Z,42.40
2018-03-27T03:27:30.888Z,41.00
2018-03-27T03:30:04.986Z,42.13
2018-03-27T03:32:39.864Z,41.63
2018-03-27T03:35:14.758Z,43.43
2018-03-27T03:37:49.591Z,44.83
2018-03-27T03:40:23.296Z,41.63
2018-03-27T03:42:57.117Z,41.43
2018-03-27T03:45:31.772Z,37.33
2018-03-27T03:48:06.332Z,38.57
2018-03-27T03:50:40.878Z,40.17
2018-03-27T03:53:20.601Z,44.30
2018-03-27T03:55:55.853Z,40.23
2018-03-27T03:58:29.806Z,39.20
2018-03-27T04:01:03.664Z,41.00
2018-03-27T04:03:37.580Z,39.27
2018-03-27T04:06:11.388Z,38.10
2018-03-27T04:08:45.900Z,39.17
2018-03-27T04:11:20.009Z,38.67
2018-03-27T04:13:54.132Z,37.03
2018-03-27T04:16:28.593Z,36.97
2018-03-27T04:19:03.056Z,36.00
2018-03-27T04:21:37.157Z,39.47
2018-03-27T04:24:11.854Z,42.63
2018-03-27T04:26:46.493Z,39.40
2018-03-27T04:29:20.560Z,37.30
2018-03-27T04:31:54.556Z,39.20
2018-03-27T04:34:29.907Z,38.83
2018-03-27T04:37:04.681Z,40.27
2018-03-27T04:39:38.525Z,41.43
2018-03-27T04:42:13.024Z,45.47
2018-03-27T04:44:47.955Z,41.97
2018-03-27T04:47:22.477Z,44.13
2018-03-27T04:49:57.410Z,41.13
2018-03-27T04:52:33.366Z,41.23
2018-03-27T04:55:07.996Z,41.60
2018-03-27T04:57:42.516Z,44.03
2018-03-27T05:00:16.935Z,44.87
2018-03-27T05:02:51.557Z,42.13
2018-03-27T05:05:26.506Z,47.63
2018-03-27T05:08:01.420Z,43.60
2018-03-27T05:10:35.137Z,41.47
2018-03-27T05:13:09.082Z,44.80
2018-03-27T05:15:43.129Z,40.20
2018-03-27T05:18:17.720Z,46.53
2018-03-27T05:20:51.875Z,51.53
2018-03-27T05:23:25.904Z,45.33
2018-03-27T05:25:59.961Z,41.40
2018-03-27T05:28:34.664Z,43.17
2018-03-27T05:31:09.058Z,42.50
2018-03-27T05:33:43.742Z,43.30
2018-03-27T05:36:18.721Z,43.40
2018-03-27T05:38:53.444Z,42.73
2018-03-27T05:41:28.062Z,44.30
2018-03-27T05:44:01.944Z,43.80
2018-03-27T05:46:36.462Z,44.90
2018-03-27T05:49:11.164Z,44.40
2018-03-27T05:51:44.936Z,43.23
2018-03-27T05:54:18.924Z,40.37
2018-03-27T05:56:53.234Z,39.90
2018-03-27T05:59:27.666Z,37.73
2018-03-27T06:02:02.788Z,38.60
2018-03-27T06:04:37.232Z,41.33
2018-03-27T06:07:11.726Z,46.37
2018-03-27T06:09:45.536Z,46.00
2018-03-27T06:12:19.455Z,43.83
2018-03-27T06:14:53.216Z,42.03
2018-03-27T06:17:27.067Z,40.50
2018-03-27T06:20:01.044Z,38.43
2018-03-27T06:22:34.835Z,41.00
2018-03-27T06:25:09.472Z,42.97
2018-03-27T06:27:44.379Z,42.73
2018-03-27T06:30:18.489Z,40.30
2018-03-27T06:32:52.347Z,41.40
2018-03-27T06:35:26.237Z,41.50
2018-03-27T06:38:01.284Z,40.83
2018-03-27T06:40:36.122Z,40.10
2018-03-27T06:43:09.924Z,41.40
2018-03-27T06:45:43.772Z,38.37
2018-03-27T06:48:18.320Z,38.20
2018-03-27T06:50:52.006Z,39.07
2018-03-27T06:53:26.658Z,38.47
2018-03-27T06:56:01.176Z,38.93
2018-03-27T06:58:36.918Z,39.47
2018-03-27T07:01:11.684Z,36.77
2018-03-27T07:03:45.366Z,38.33
2018-03-27T07:06:19.274Z,38.83
2018-03-27T07:08:53.757Z,37.33
2018-03-27T07:11:29.175Z,35.90
2018-03-27T07:14:03.646Z,36.57
2018-03-27T07:16:38.229Z,35.33
2018-03-27T07:19:12.148Z,36.87
2018-03-27T07:21:46.909Z,35.27
2018-03-27T07:24:20.807Z,34.93
2018-03-27T07:26:55.681Z,35.47
2018-03-27T07:29:29.749Z,37.83
2018-03-27T07:32:04.374Z,37.90
2018-03-27T07:34:39.237Z,37.93
2018-03-27T07:37:14.935Z,34.23
2018-03-27T07:39:49.030Z,35.43
2018-03-27T07:42:22.580Z,35.60
2018-03-27T07:44:57.301Z,33.80
2018-03-27T07:47:31.821Z,33.43
2018-03-27T07:50:06.542Z,34.00
2018-03-27T07:52:40.447Z,34.13
2018-03-27T07:55:16.330Z,34.53
2018-03-27T07:57:51.751Z,34.37
2018-03-27T08:00:26.272Z,33.17
2018-03-27T08:03:00.890Z,35.70
2018-03-27T08:05:35.308Z,31.27
2018-03-27T08:08:09.519Z,32.90
2018-03-27T08:10:44.348Z,33.00
2018-03-27T08:13:18.273Z,32.67
2018-03-27T08:15:52.991Z,30.23
2018-03-27T08:18:28.059Z,32.13
2018-03-27T08:21:02.753Z,32.10
2018-03-27T08:23:37.804Z,32.20
2018-03-27T08:26:12.735Z,31.33
2018-03-27T08:28:47.044Z,31.37
2018-03-27T08:31:21.560Z,32.00
2018-03-27T08:33:56.677Z,32.33
2018-03-27T08:36:30.235Z,30.50
2018-03-27T08:39:05.611Z,30.80
2018-03-27T08:41:40.461Z,28.10
2018-03-27T08:44:15.292Z,28.20
2018-03-27T08:46:49.108Z,29.33
2018-03-27T08:49:23.671Z,28.47
2018-03-27T08:51:58.232Z,27.73
2018-03-27T08:54:32.640Z,26.13
2018-03-27T08:57:07.677Z,27.90
2018-03-27T08:59:41.184Z,26.77
2018-03-27T09:02:14.983Z,26.97
2018-03-27T09:04:48.817Z,26.90
2018-03-27T09:07:23.425Z,27.20
2018-03-27T09:09:57.319Z,27.57
2018-03-27T09:12:31.960Z,28.90
2018-03-27T09:15:06.420Z,26.83
2018-03-27T09:17:40.996Z,27.80
2018-03-27T09:20:16.207Z,28.00
2018-03-27T09:22:50.839Z,25.87
2018-03-27T09:25:25.996Z,27.10
2018-03-27T09:27:59.793Z,24.13
2018-03-27T09:30:34.431Z,22.70
2018-03-27T09:33:08.210Z,23.93
2018-03-27T09:35:41.964Z,17.67
2018-03-27T09:38:15.748Z,20.00
2018-03-27T09:40:50.372Z,20.70
2018-03-27T09:43:24.934Z,16.60
2018-03-27T09:46:00.222Z,17.63
2018-03-27T09:48:34.806Z,14.37
2018-03-27T09:51:08.500Z,15.17
2018-03-27T09:53:42.859Z,15.90
2018-03-27T09:56:16.859Z,15.33
2018-03-27T09:58:50.537Z,16.60
2018-03-27T10:01:27.983Z,15.53
2018-03-27T10:04:02.142Z,15.87
2018-03-27T10:06:36.751Z,15.77
2018-03-27T10:09:10.425Z,15.27
2018-03-27T10:11:44.151Z,15.27
2018-03-27T10:14:17.936Z,15.73
2018-03-27T10:16:51.653Z,16.07
2018-03-27T10:19:26.842Z,16.10
2018-03-27T10:22:01.015Z,16.90
2018-03-27T10:24:34.958Z,15.50
2018-03-27T10:27:09.571Z,14.77
2018-03-27T10:29:43.589Z,13.90
2018-03-27T10:32:18.307Z,14.10
2018-03-27T10:34:52.909Z,14.13
2018-03-27T10:37:27.970Z,13.77
2018-03-27T10:40:02.459Z,13.60
2018-03-27T10:42:36.397Z,13.13
2018-03-27T10:45:10.365Z,13.47
2018-03-27T10:47:44.231Z,13.80
2018-03-27T10:50:17.763Z,13.30
2018-03-27T10:52:53.097Z,14.13
2018-03-27T10:55:27.779Z,14.90
2018-03-27T10:58:01.341Z,13.63
2018-03-27T11:00:35.664Z,14.10
2018-03-27T11:03:10.383Z,13.17
2018-03-27T11:05:45.333Z,14.33
2018-03-27T11:08:19.252Z,13.73
2018-03-27T11:10:53.382Z,13.47
2018-03-27T11:13:27.650Z,13.03
2018-03-27T11:16:01.351Z,14.50
2018-03-27T11:18:35.315Z,13.00
2018-03-27T11:21:09.624Z,14.37
2018-03-27T11:23:43.496Z,12.87
2018-03-27T11:26:17.830Z,13.00
2018-03-27T11:28:52.488Z,12.90
2018-03-27T11:31:26.567Z,12.93
2018-03-27T11:34:00.678Z,13.37
2018-03-27T11:36:35.380Z,13.93
2018-03-27T11:39:10.253Z,13.23
2018-03-27T11:41:44.846Z,11.03
2018-03-27T11:44:18.771Z,12.17
2018-03-27T11:59:49.978Z,12.50
2018-03-27T12:02:23.875Z,11.43
2018-03-27T12:04:58.412Z,11.93
2018-03-27T12:07:32.924Z,12.00
2018-03-27T12:10:07.578Z,13.63
2018-03-27T12:12:41.585Z,13.27
2018-03-27T12:15:15.677Z,13.23
2018-03-27T12:17:50.204Z,12.20
2018-03-27T12:20:24.499Z,10.63
2018-03-27T12:22:58.035Z,10.20
2018-03-27T12:25:32.000Z,10.40
2018-03-27T12:28:06.054Z,10.97
2018-03-27T12:30:40.522Z,10.83
2018-03-27T12:33:15.181Z,10.30
2018-03-27T12:35:49.800Z,10.17
2018-03-27T12:38:24.269Z,10.87
2018-03-27T12:40:58.654Z,11.27
2018-03-27T12:43:33.966Z,11.13
2018-03-27T12:46:09.140Z,10.77
2018-03-27T12:48:43.080Z,11.07
2018-03-27T12:51:18.173Z,11.10
2018-03-27T12:53:52.073Z,12.13
2018-03-27T12:56:26.995Z,11.63
2018-03-27T12:59:01.172Z,11.40
2018-03-27T13:01:36.160Z,11.33
2018-03-27T13:04:09.965Z,12.23
2018-03-27T13:06:44.468Z,12.20
2018-03-27T13:09:19.198Z,11.80
2018-03-27T13:11:53.024Z,11.57
2018-03-27T13:14:27.305Z,12.30
2018-03-27T13:17:01.827Z,11.47
2018-03-27T13:19:36.924Z,12.17
2018-03-27T13:22:10.767Z,11.33
2018-03-27T13:24:45.367Z,11.90
2018-03-27T13:27:19.911Z,11.63
2018-03-27T13:29:54.648Z,11.77
2018-03-27T13:32:29.813Z,12.23
2018-03-27T13:35:04.493Z,11.47
2018-03-27T13:37:39.381Z,11.60
2018-03-27T13:40:13.215Z,11.90
2018-03-27T13:42:47.863Z,11.30
2018-03-27T13:45:21.565Z,10.20
2018-03-27T13:47:57.030Z,10.80
2018-03-27T13:50:31.659Z,11.50
2018-03-27T13:53:06.493Z,10.80
2018-03-27T13:55:41.077Z,11.90
2018-03-27T13:58:16.962Z,10.17
2018-03-27T14:00:51.793Z,11.30
2018-03-27T14:03:26.188Z,11.43
2018-03-27T14:06:01.069Z,11.03
2018-03-27T14:08:35.285Z,9.70
2018-03-27T14:11:09.854Z,10.57
2018-03-27T14:13:43.855Z,10.57
2018-03-27T14:16:18.067Z,10.37
2018-03-27T14:18:51.828Z,10.60
2018-03-27T14:21:25.629Z,10.20
2018-03-27T14:23:59.763Z,10.10
2018-03-27T14:26:34.398Z,10.63
2018-03-27T14:29:08.913Z,10.83
2018-03-27T14:31:42.444Z,10.30
2018-03-27T14:34:16.485Z,10.17
2018-03-27T14:36:50.956Z,9.80
2018-03-27T14:39:25.017Z,9.17
2018-03-27T14:41:58.979Z,9.30
2018-03-27T14:44:32.900Z,9.23
2018-03-27T14:47:06.728Z,9.47
2018-03-27T14:49:41.006Z,9.60
2018-03-27T14:52:15.225Z,9.90
2018-03-27T14:54:48.959Z,10.43
2018-03-27T14:57:22.915Z,9.77
2018-03-27T14:59:56.765Z,9.77
2018-03-27T15:02:30.555Z,9.93
2018-03-27T15:05:04.665Z,10.47
2018-03-27T15:07:39.380Z,10.00
2018-03-27T15:10:13.111Z,11.00
2018-03-27T15:12:47.580Z,10.67
2018-03-27T15:15:21.313Z,10.67
2018-03-27T15:17:56.157Z,10.63
2018-03-27T15:20:30.409Z,10.17
2018-03-27T15:23:04.367Z,10.23
2018-03-27T15:25:38.592Z,10.90
2018-03-27T15:28:12.467Z,10.83
2018-03-27T15:30:46.791Z,10.57
2018-03-27T15:33:20.296Z,10.63
2018-03-27T15:35:54.720Z,11.20
2018-03-27T15:38:29.342Z,10.93
2018-03-27T15:41:03.360Z,10.23
2018-03-27T15:43:39.000Z,10.33
2018-03-27T15:46:12.896Z,11.23
2018-03-27T15:48:46.879Z,10.67
2018-03-27T15:51:21.418Z,10.90
2018-03-27T15:53:55.724Z,11.07
2018-03-27T15:56:29.550Z,10.83
2018-03-27T15:59:03.421Z,11.30
2018-03-27T16:01:37.992Z,11.60
2018-03-27T16:04:11.780Z,12.47
2018-03-27T16:06:46.095Z,12.57
2018-03-27T16:09:20.228Z,12.27
2018-03-27T16:11:54.117Z,13.17
2018-03-27T16:14:28.462Z,12.80
2018-03-27T16:17:02.142Z,12.90
2018-03-27T16:19:36.060Z,13.30
2018-03-27T16:22:10.794Z,13.67
2018-03-27T16:24:45.314Z,13.30
2018-03-27T16:27:19.164Z,13.73
2018-03-27T16:29:54.148Z,13.87
2018-03-27T16:32:28.975Z,13.83
2018-03-27T16:35:02.826Z,12.57
2018-03-27T16:37:37.088Z,13.13
2018-03-27T16:40:13.249Z,14.80
2018-03-27T16:42:48.173Z,14.30
2018-03-27T16:45:23.604Z,14.70
2018-03-27T16:47:58.244Z,13.93
2018-03-27T16:50:32.772Z,14.33
2018-03-27T16:53:07.394Z,14.27
2018-03-27T16:55:41.888Z,14.60
2018-03-27T16:58:16.850Z,15.07
2018-03-27T17:00:51.267Z,14.97
2018-03-27T17:03:25.179Z,14.77
2018-03-27T17:05:59.948Z,15.07
2018-03-27T17:08:34.814Z,15.83
2018-03-27T17:11:08.970Z,15.70
2018-03-27T17:13:43.682Z,16.27
2018-03-27T17:16:18.079Z,16.13
2018-03-27T17:18:51.970Z,15.37
2018-03-27T17:21:27.423Z,17.37
2018-03-27T17:24:02.142Z,15.50
2018-03-27T17:26:38.392Z,16.73
2018-03-27T17:29:12.545Z,15.80
2018-03-27T17:31:47.749Z,15.83
2018-03-27T17:34:21.776Z,17.03
2018-03-27T17:36:56.904Z,22.80
2018-03-27T17:39:31.239Z,20.47
2018-03-27T17:42:07.803Z,18.43
2018-03-27T17:44:42.424Z,19.43
2018-03-27T17:47:17.030Z,22.63
2018-03-27T17:49:51.347Z,22.07
2018-03-27T17:52:26.098Z,16.27
2018-03-27T17:55:00.081Z,22.37
2018-03-27T17:57:34.905Z,19.00
2018-03-27T18:00:08.887Z,15.73
2018-03-27T18:02:42.627Z,19.20
2018-03-27T18:05:17.172Z,19.73
2018-03-27T18:07:51.053Z,20.23
2018-03-27T18:10:25.600Z,34.97
2018-03-27T18:12:59.738Z,24.63
2018-03-27T18:15:33.738Z,26.53
2018-03-27T18:18:07.834Z,38.03
2018-03-27T18:20:41.507Z,17.63
2018-03-27T18:23:15.663Z,27.40
2018-03-27T18:25:50.472Z,27.40
2018-03-27T18:28:24.252Z,18.53
2018-03-27T18:30:58.015Z,16.97
2018-03-27T18:33:32.786Z,16.83
2018-03-27T18:36:07.415Z,15.43
2018-03-27T18:38:41.208Z,15.23
2018-03-27T18:41:15.421Z,15.17
2018-03-27T18:43:50.153Z,14.67
2018-03-27T18:46:24.979Z,15.43
2018-03-27T18:48:59.791Z,15.43
2018-03-27T18:51:33.839Z,14.23
2018-03-27T18:54:09.183Z,15.53
2018-03-27T18:56:43.279Z,14.90
2018-03-27T18:59:18.001Z,14.20
2018-03-27T19:01:51.728Z,14.90
2018-03-27T19:04:26.711Z,14.63
2018-03-27T19:07:00.312Z,14.53
2018-03-27T19:09:34.236Z,15.10
2018-03-27T19:12:09.525Z,14.93
2018-03-27T19:14:43.135Z,14.23
2018-03-27T19:17:17.695Z,13.57
2018-03-27T19:19:52.426Z,13.37
2018-03-27T19:22:27.011Z,13.70
2018-03-27T19:25:00.971Z,13.63
2018-03-27T19:27:34.972Z,13.83
2018-03-27T19:30:09.227Z,13.90
2018-03-27T19:32:43.324Z,14.23
2018-03-27T19:35:17.264Z,14.47
2018-03-27T19:37:52.014Z,13.63
2018-03-27T19:40:26.978Z,14.53
2018-03-27T19:43:00.944Z,13.77
2018-03-27T19:45:35.398Z,14.10
2018-03-27T19:48:10.429Z,15.00
2018-03-27T19:50:45.143Z,15.03
2018-03-27T19:53:19.164Z,14.80
2018-03-27T19:55:52.949Z,15.10
2018-03-27T19:58:27.304Z,15.37
2018-03-27T20:01:01.125Z,15.13
2018-03-27T20:03:35.194Z,15.63
2018-03-27T20:06:09.908Z,16.53
2018-03-27T20:08:44.244Z,16.30
2018-03-27T20:11:18.050Z,15.57
2018-03-27T20:13:52.482Z,16.97
2018-03-27T20:16:28.450Z,16.40
2018-03-27T20:19:02.410Z,16.27
2018-03-27T20:21:36.105Z,16.90
2018-03-27T20:24:10.952Z,17.43
2018-03-27T20:26:45.644Z,18.20
2018-03-27T20:29:23.029Z,18.47
2018-03-27T20:31:59.477Z,18.23
2018-03-27T20:34:33.731Z,17.40
2018-03-27T20:37:07.859Z,18.07
2018-03-27T20:39:42.712Z,18.17
2018-03-27T20:42:18.352Z,18.07
2018-03-27T20:44:53.200Z,17.77
2018-03-27T20:47:28.892Z,18.30
2018-03-27T20:50:02.951Z,18.27
2018-03-27T20:52:36.742Z,17.50
2018-03-27T20:55:12.031Z,17.73
2018-03-27T20:57:45.918Z,17.23
2018-03-27T21:00:19.862Z,18.40
2018-03-27T21:02:55.031Z,17.50
2018-03-27T21:05:29.970Z,18.00
2018-03-27T21:08:05.284Z,18.67
2018-03-27T21:10:39.428Z,18.53
2018-03-27T21:13:13.152Z,18.33
2018-03-27T21:15:46.876Z,18.93
2018-03-27T21:18:21.443Z,18.57
2018-03-27T21:20:55.208Z,17.87
2018-03-27T21:23:30.027Z,17.60
2018-03-27T21:26:03.863Z,18.20
2018-03-27T21:28:38.693Z,18.90
2018-03-27T21:31:12.428Z,19.37
2018-03-27T21:33:46.725Z,18.63
2018-03-27T21:36:20.701Z,20.03
2018-03-27T21:38:55.648Z,18.77
2018-03-27T21:41:30.194Z,17.53
2018-03-27T21:44:04.192Z,17.60
2018-03-27T21:46:38.194Z,16.87
2018-03-27T21:49:12.603Z,16.77
2018-03-27T21:51:47.722Z,16.00
2018-03-27T21:54:21.538Z,16.27
2018-03-27T21:56:55.600Z,13.80
2018-03-27T21:59:30.693Z,15.67
2018-03-27T22:02:05.723Z,13.90
2018-03-27T22:04:39.541Z,14.00
2018-03-27T22:07:14.372Z,13.27
2018-03-27T22:09:48.516Z,14.37
2018-03-27T22:12:22.899Z,15.23
2018-03-27T22:14:57.396Z,15.80
2018-03-27T22:17:31.631Z,14.97
2018-03-27T22:20:05.641Z,14.83
2018-03-27T22:22:40.464Z,14.30
2018-03-27T22:25:14.522Z,14.33
2018-03-27T22:27:48.318Z,14.50
2018-03-27T22:30:22.601Z,14.90
2018-03-27T22:32:56.981Z,13.33
2018-03-27T22:35:31.611Z,13.93
2018-03-27T22:38:06.573Z,13.77
2018-03-27T22:40:40.696Z,14.20
2018-03-27T22:43:16.127Z,13.60
2018-03-27T22:45:50.665Z,12.87
2018-03-27T22:48:24.559Z,13.03
2018-03-27T22:50:59.605Z,12.77
2018-03-27T22:53:33.716Z,13.53
2018-03-27T22:56:07.900Z,12.80
2018-03-27T22:58:42.330Z,11.53
2018-03-27T23:01:17.067Z,12.47
2018-03-27T23:03:50.855Z,12.80
2018-03-27T23:06:24.875Z,12.13
2018-03-27T23:08:58.990Z,11.77
2018-03-27T23:11:33.401Z,11.03
2018-03-27T23:14:08.544Z,9.90
2018-03-27T23:16:43.351Z,10.60
2018-03-27T23:19:18.222Z,9.50
2018-03-27T23:21:53.729Z,9.40
2018-03-27T23:24:28.675Z,10.23
2018-03-27T23:27:03.296Z,9.60
2018-03-27T23:29:38.453Z,9.00
2018-03-27T23:32:13.080Z,7.97
2018-03-27T23:34:46.987Z,8.40
2018-03-27T23:37:20.553Z,7.97
2018-03-27T23:39:54.549Z,8.27
2018-03-27T23:42:28.597Z,8.20
2018-03-27T23:45:02.395Z,8.00
2018-03-27T23:47:36.471Z,8.13
2018-03-27T23:50:11.035Z,7.97
2018-03-27T23:52:46.165Z,8.47
2018-03-27T23:55:21.083Z,7.90
2018-03-27T23:57:55.148Z,7.53
